Time;durP1;ratioP1;P1;durP2;ratioP2;P2;SDS_P1;SDS_P2;PMS_P1;PMS_P2;Temp;Humidity;BMP_temperature;BMP_pressure;BME280_temperature;BME280_humidity;BME280_pressure;Samples;Min_cycle;Max_cycle;Signal;HPM_P1;HPM_P2
2022/05/17 00:02:05;;;;;;;3.70;1.70;;;17.90;57.60;;;;;;5074896;28;20189;-76
2022/05/17 00:04:32;;;;;;;7.33;1.90;;;18.20;58.70;;;;;;5075194;28;20220;-76
2022/05/17 00:07:04;;;;;;;5.57;1.67;;;18.10;58.40;;;;;;5074994;28;20171;-79
2022/05/17 00:09:32;;;;;;;3.00;1.10;;;18.20;56.80;;;;;;5074815;28;20660;-77
2022/05/17 00:11:59;;;;;;;4.10;1.10;;;18.30;52.60;;;;;;5074790;28;20187;-77
2022/05/17 00:14:27;;;;;;;3.13;1.10;;;18.30;51.20;;;;;;5074378;28;20186;-79
2022/05/17 00:16:55;;;;;;;2.30;0.90;;;18.30;49.90;;;;;;5073500;28;20217;-78
2022/05/17 00:19:23;;;;;;;2.07;1.10;;;18.30;50.10;;;;;;5074668;28;20183;-78
2022/05/17 00:21:51;;;;;;;5.73;1.17;;;18.40;49.60;;;;;;5071402;28;20198;-79
2022/05/17 00:24:21;;;;;;;1.47;1.00;;;18.30;48.40;;;;;;5074159;28;20193;-76
2022/05/17 00:26:49;;;;;;;3.00;1.10;;;18.40;48.90;;;;;;5074550;28;20175;-76
2022/05/17 00:29:17;;;;;;;2.80;1.00;;;18.30;48.90;;;;;;5074621;28;20534;-74
2022/05/17 00:31:44;;;;;;;2.73;0.90;;;18.30;47.60;;;;;;5073157;28;20179;-75
2022/05/17 00:34:12;;;;;;;2.77;0.80;;;18.30;48.40;;;;;;5074646;28;20267;-77
2022/05/17 00:36:40;;;;;;;1.43;0.70;;;18.40;47.60;;;;;;5074429;28;20175;-74
2022/05/17 00:39:08;;;;;;;4.80;1.23;;;18.50;47.80;;;;;;5074373;28;20249;-74
2022/05/17 00:41:35;;;;;;;2.87;1.00;;;18.50;45.90;;;;;;5074078;28;20175;-78
2022/05/17 00:47:12;;;;;;;1.87;1.00;;;18.50;47.30;;;;;;5074553;28;20660;-77
2022/05/17 00:49:46;;;;;;;2.40;1.20;;;18.70;47.40;;;;;;5074461;28;20180;-76
2022/05/17 00:52:26;;;;;;;2.80;1.10;;;18.80;47.60;;;;;;5074608;28;20208;-76
2022/05/17 00:54:57;;;;;;;2.13;0.93;;;18.90;46.80;;;;;;5070272;28;20178;-82
2022/05/17 00:57:42;;;;;;;2.70;0.90;;;19.20;47.50;;;;;;5074163;28;20195;-80
2022/05/17 01:00:12;;;;;;;2.13;0.70;;;19.20;44.90;;;;;;5071911;28;20179;-76
2022/05/17 01:02:47;;;;;;;6.50;0.80;;;19.00;45.10;;;;;;5073513;28;20512;-73
2022/05/17 01:05:16;;;;;;;3.80;0.97;;;19.10;44.40;;;;;;5072191;28;20252;-79
2022/05/17 01:07:48;;;;;;;2.00;0.83;;;19.10;44.60;;;;;;5073668;28;20172;-75
2022/05/17 01:10:15;;;;;;;2.60;0.73;;;19.30;44.70;;;;;;5072838;28;20187;-75
2022/05/17 01:12:43;;;;;;;2.83;1.00;;;19.40;44.60;;;;;;5073578;28;20675;-78
2022/05/17 01:15:12;;;;;;;1.80;0.93;;;19.40;43.50;;;;;;5069814;28;20183;-73
2022/05/17 01:17:41;;;;;;;1.83;0.90;;;19.30;44.00;;;;;;5069422;28;20322;-76
2022/05/17 01:20:13;;;;;;;3.07;0.90;;;19.50;43.70;;;;;;5073376;28;20175;-75
2022/05/17 01:22:40;;;;;;;4.23;0.90;;;19.30;43.20;;;;;;5071173;28;20668;-74
2022/05/17 01:25:08;;;;;;;2.93;1.00;;;19.30;43.70;;;;;;5072275;28;20168;-76
2022/05/17 01:27:44;;;;;;;1.87;0.90;;;19.60;42.40;;;;;;5072618;28;20182;-75
2022/05/17 01:30:19;;;;;;;2.87;1.83;;;19.80;43.10;;;;;;5072535;28;20217;-77
2022/05/17 01:32:47;;;;;;;2.47;0.83;;;19.90;42.60;;;;;;5073370;28;20231;-75
2022/05/17 01:35:14;;;;;;;6.40;0.73;;;19.90;42.80;;;;;;5072265;28;20254;-78
2022/05/17 01:37:42;;;;;;;3.23;1.30;;;20.00;42.50;;;;;;5073416;28;20203;-79
2022/05/17 01:40:10;;;;;;;7.70;0.80;;;20.20;42.40;;;;;;5073796;28;20168;-79
2022/05/17 01:42:37;;;;;;;3.23;1.07;;;20.20;41.90;;;;;;5072213;28;20227;-76
2022/05/17 01:45:06;;;;;;;2.03;0.70;;;20.30;41.90;;;;;;5073272;28;20175;-78
2022/05/17 01:47:33;;;;;;;2.30;0.87;;;20.50;41.20;;;;;;5073400;28;20258;-82
2022/05/17 01:50:01;;;;;;;3.47;1.10;;;20.30;40.40;;;;;;5071790;28;20252;-79
2022/05/17 01:52:28;;;;;;;1.30;0.90;;;20.20;40.50;;;;;;5073105;28;20218;-77
2022/05/17 01:54:55;;;;;;;1.87;0.90;;;20.40;40.40;;;;;;5073151;28;20638;-78
2022/05/17 01:57:23;;;;;;;1.80;0.80;;;20.30;40.50;;;;;;5073030;28;20677;-81
2022/05/17 01:59:50;;;;;;;1.93;0.70;;;20.20;40.70;;;;;;5072792;28;20220;-77
2022/05/17 02:02:18;;;;;;;3.60;0.90;;;20.20;41.00;;;;;;5072590;28;20213;-76
2022/05/17 02:04:45;;;;;;;2.23;0.90;;;20.50;40.40;;;;;;5072794;28;20172;-86
2022/05/17 02:07:12;;;;;;;2.47;0.90;;;20.60;39.60;;;;;;5072887;28;20513;-79
2022/05/17 02:09:40;;;;;;;1.60;0.70;;;20.50;39.50;;;;;;5072666;28;20242;-75
2022/05/17 02:12:10;;;;;;;2.07;0.73;;;20.80;38.80;;;;;;5072908;28;20178;-81
2022/05/17 02:14:37;;;;;;;2.07;0.80;;;20.80;39.00;;;;;;5071626;28;20179;-75
2022/05/17 02:17:04;;;;;;;3.30;0.90;;;20.80;38.30;;;;;;5072471;28;20470;-78
2022/05/17 02:19:32;;;;;;;3.03;0.60;;;21.10;38.80;;;;;;5072455;28;20186;-79
2022/05/17 02:22:00;;;;;;;2.87;0.80;;;21.00;38.90;;;;;;5072440;28;20660;-77
2022/05/17 02:24:30;;;;;;;4.47;0.93;;;21.20;38.00;;;;;;5072754;28;20175;-78
2022/05/17 02:26:58;;;;;;;0.73;0.67;;;21.20;39.00;;;;;;5072391;28;20222;-75
2022/05/17 02:29:26;;;;;;;2.10;0.83;;;21.50;37.50;;;;;;5072517;28;20710;-77
2022/05/17 02:31:53;;;;;;;1.90;0.80;;;21.60;38.30;;;;;;5072434;28;20253;-76
2022/05/17 02:34:21;;;;;;;2.33;0.87;;;22.00;38.00;;;;;;5072660;28;20542;-78
2022/05/17 02:36:48;;;;;;;2.80;0.77;;;22.20;38.20;;;;;;5072568;28;20195;-76
2022/05/17 02:39:16;;;;;;;1.37;0.70;;;22.20;36.60;;;;;;5071129;28;20179;-78
2022/05/17 02:41:43;;;;;;;4.00;0.80;;;22.00;37.60;;;;;;5071577;28;20163;-78
2022/05/17 02:44:11;;;;;;;2.73;0.80;;;21.90;37.40;;;;;;5071919;28;20661;-76
2022/05/17 02:46:38;;;;;;;3.77;1.00;;;21.90;37.90;;;;;;5072311;28;20214;-78
2022/05/17 02:49:07;;;;;;;2.10;0.80;;;22.10;37.70;;;;;;5072318;28;20266;-81
2022/05/17 02:51:36;;;;;;;2.20;0.80;;;22.30;37.00;;;;;;5072041;28;20270;-77
2022/05/17 02:54:05;;;;;;;1.50;0.80;;;22.30;36.10;;;;;;5067849;28;20215;-76
2022/05/17 02:56:33;;;;;;;1.93;0.70;;;22.10;36.90;;;;;;5068375;28;20175;-77
2022/05/17 02:59:01;;;;;;;2.90;0.80;;;22.10;37.10;;;;;;5072430;28;20175;-78
2022/05/17 03:01:29;;;;;;;4.03;0.90;;;22.00;36.90;;;;;;5072551;28;20171;-77
2022/05/17 03:03:56;;;;;;;2.17;1.00;;;22.10;36.50;;;;;;5072617;28;20171;-75
2022/05/17 03:06:24;;;;;;;1.27;0.93;;;22.30;37.10;;;;;;5071325;28;20175;-77
2022/05/17 03:08:51;;;;;;;3.37;0.93;;;22.50;36.30;;;;;;5062039;28;20183;-77
2022/05/17 03:11:18;;;;;;;3.23;0.97;;;22.90;36.50;;;;;;5052061;28;20613;-77
2022/05/17 03:13:46;;;;;;;4.77;0.70;;;22.90;35.20;;;;;;5051882;28;20176;-77
2022/05/17 03:16:15;;;;;;;2.47;0.80;;;22.80;34.80;;;;;;5051547;28;20168;-77
2022/05/17 03:18:43;;;;;;;2.87;0.83;;;22.70;34.60;;;;;;5051661;28;20212;-78
2022/05/17 03:21:10;;;;;;;1.50;0.80;;;23.00;34.90;;;;;;5052041;28;20172;-78
2022/05/17 03:23:37;;;;;;;2.10;0.93;;;23.00;35.20;;;;;;5052171;28;20556;-76
2022/05/17 03:26:05;;;;;;;2.00;0.70;;;23.40;35.60;;;;;;5051453;28;20230;-77
2022/05/17 03:28:33;;;;;;;3.27;0.80;;;23.60;35.10;;;;;;5055825;28;20195;-82
2022/05/17 03:31:00;;;;;;;2.13;0.63;;;23.30;35.80;;;;;;5054850;28;20243;-79
2022/05/17 03:33:27;;;;;;;4.37;0.97;;;23.30;35.20;;;;;;5055947;28;20172;-75
2022/05/17 03:35:55;;;;;;;3.70;1.10;;;23.60;35.50;;;;;;5055634;28;20218;-74
2022/05/17 03:38:22;;;;;;;2.80;1.13;;;23.80;35.10;;;;;;5055606;28;20250;-75
2022/05/17 03:40:50;;;;;;;5.93;1.20;;;23.90;34.50;;;;;;5055336;28;20183;-74
2022/05/17 03:43:19;;;;;;;2.90;0.90;;;23.80;35.40;;;;;;5055040;28;20302;-72
2022/05/17 03:45:47;;;;;;;3.33;0.80;;;24.00;34.50;;;;;;5055428;28;20226;-77
2022/05/17 03:48:14;;;;;;;4.40;1.10;;;24.10;34.40;;;;;;5055484;28;20168;-77
2022/05/17 03:50:42;;;;;;;2.97;0.97;;;24.20;34.40;;;;;;5055224;28;20179;-75
2022/05/17 03:53:10;;;;;;;5.57;1.10;;;24.60;34.50;;;;;;5070927;28;20233;-73
2022/05/17 03:55:37;;;;;;;3.30;1.10;;;24.70;34.90;;;;;;5074524;28;20183;-73
2022/05/17 03:58:04;;;;;;;3.87;1.07;;;24.60;34.40;;;;;;5075827;28;20210;-71
2022/05/17 04:00:32;;;;;;;4.60;1.20;;;24.80;33.70;;;;;;5075439;28;20641;-74
2022/05/17 04:03:00;;;;;;;3.83;1.00;;;25.10;33.60;;;;;;5082881;28;20218;-76
2022/05/17 04:05:28;;;;;;;7.20;1.07;;;24.90;32.80;;;;;;5090489;28;20191;-75
2022/05/17 04:07:55;;;;;;;6.30;1.30;;;25.10;32.80;;;;;;5088796;28;20243;-74
2022/05/17 04:10:23;;;;;;;2.40;0.87;;;24.80;34.20;;;;;;5082409;28;20187;-72
2022/05/17 04:12:51;;;;;;;2.63;0.70;;;24.50;33.60;;;;;;5074698;28;20172;-74
2022/05/17 04:15:23;;;;;;;4.17;0.80;;;24.90;33.20;;;;;;5073841;28;20287;-73
2022/05/17 04:17:51;;;;;;;5.53;1.60;;;25.40;32.10;;;;;;5072621;28;20203;-73
2022/05/17 04:20:18;;;;;;;2.57;0.80;;;25.90;31.40;;;;;;5066515;28;20167;-74
2022/05/17 04:22:48;;;;;;;2.70;1.47;;;25.80;32.00;;;;;;5068839;28;20186;-74
2022/05/17 04:25:23;;;;;;;7.37;1.50;;;25.90;31.70;;;;;;5068753;28;20169;-75
2022/05/17 04:27:51;;;;;;;3.37;1.20;;;25.70;32.60;;;;;;5054247;28;20179;-75
2022/05/17 04:30:19;;;;;;;6.53;1.30;;;25.40;33.20;;;;;;5073297;28;20258;-74
2022/05/17 04:32:48;;;;;;;5.67;1.63;;;25.50;32.90;;;;;;5074204;28;20225;-75
2022/05/17 04:35:17;;;;;;;3.17;1.37;;;25.70;33.00;;;;;;5068763;28;20287;-74
2022/05/17 04:37:45;;;;;;;5.13;0.90;;;25.80;32.00;;;;;;5060968;28;20207;-75
2022/05/17 04:40:13;;;;;;;6.57;1.23;;;26.30;32.10;;;;;;5054150;28;20164;-76
2022/05/17 04:42:43;;;;;;;3.97;1.07;;;26.60;31.10;;;;;;5054030;28;20234;-77
2022/05/17 04:45:13;;;;;;;2.07;0.60;;;26.70;30.10;;;;;;5072698;28;20763;-75
2022/05/17 04:47:42;;;;;;;4.27;0.80;;;26.50;30.80;;;;;;5074173;28;20522;-76
2022/05/17 04:50:11;;;;;;;1.60;1.00;;;26.20;30.70;;;;;;5073898;28;20313;-74
2022/05/17 04:52:39;;;;;;;5.60;1.33;;;25.80;31.70;;;;;;5067340;28;20183;-74
2022/05/17 04:55:08;;;;;;;3.07;1.20;;;24.90;33.50;;;;;;5060177;28;20167;-76
2022/05/17 04:57:36;;;;;;;1.87;0.80;;;25.50;32.40;;;;;;5072254;28;20203;-73
2022/05/17 05:00:09;;;;;;;9.90;1.37;;;25.70;32.10;;;;;;5072404;28;20283;-77
2022/05/17 05:02:37;;;;;;;4.57;1.20;;;26.20;31.60;;;;;;5072954;28;20538;-79
2022/05/17 05:05:05;;;;;;;3.03;1.00;;;26.30;31.40;;;;;;5073061;28;20166;-77
2022/05/17 05:07:33;;;;;;;6.77;1.40;;;26.80;30.50;;;;;;5070901;28;20171;-74
2022/05/17 05:10:00;;;;;;;5.13;1.40;;;26.10;32.00;;;;;;5071492;28;20207;-74
2022/05/17 05:12:30;;;;;;;7.23;1.23;;;26.20;32.10;;;;;;5073312;28;20250;-74
2022/05/17 05:14:59;;;;;;;7.03;1.50;;;26.40;31.40;;;;;;5072389;28;20189;-74
2022/05/17 05:17:33;;;;;;;5.23;1.10;;;26.90;30.50;;;;;;5067473;28;20685;-75
2022/05/17 05:20:01;;;;;;;7.77;1.20;;;27.10;30.10;;;;;;5052523;28;20179;-73
2022/05/17 05:22:31;;;;;;;7.70;1.27;;;26.80;30.50;;;;;;5062928;28;20182;-78
2022/05/17 05:24:58;;;;;;;7.03;1.27;;;26.80;30.40;;;;;;5073428;28;20266;-74
2022/05/17 05:27:30;;;;;;;2.33;1.30;;;27.00;30.70;;;;;;5071080;28;20229;-77
2022/05/17 05:29:57;;;;;;;6.23;1.37;;;26.40;31.50;;;;;;5058125;28;20190;-77
2022/05/17 05:32:25;;;;;;;7.03;5.77;;;26.20;31.50;;;;;;5072050;28;20185;-75
2022/05/17 05:34:52;;;;;;;7.53;2.80;;;26.50;31.20;;;;;;5073325;28;20209;-79
2022/05/17 05:37:19;;;;;;;4.93;1.87;;;26.10;31.40;;;;;;5072885;28;20569;-76
2022/05/17 05:39:47;;;;;;;3.77;1.23;;;25.80;31.40;;;;;;5083548;28;20200;-77
2022/05/17 05:42:14;;;;;;;3.77;1.00;;;25.60;31.70;;;;;;5082019;28;20657;-76
2022/05/17 05:44:41;;;;;;;3.73;1.00;;;25.70;31.80;;;;;;5093286;28;20166;-77
2022/05/17 05:47:09;;;;;;;2.03;1.03;;;26.20;30.80;;;;;;5092083;28;20194;-78
2022/05/17 05:49:36;;;;;;;2.10;0.73;;;26.50;30.50;;;;;;5067577;28;20188;-79
2022/05/17 05:52:03;;;;;;;3.70;0.90;;;27.10;29.80;;;;;;5060690;28;20266;-78
2022/05/17 05:54:31;;;;;;;3.33;1.10;;;27.10;29.20;;;;;;5073213;28;20175;-83
2022/05/17 05:57:02;;;;;;;1.43;0.90;;;26.80;30.50;;;;;;5072610;28;20818;-78
2022/05/17 05:59:31;;;;;;;3.33;1.10;;;26.90;29.50;;;;;;5072851;28;20213;-80
2022/05/17 06:01:59;;;;;;;2.80;1.10;;;26.80;30.00;;;;;;5071545;28;20520;-79
2022/05/17 06:04:29;;;;;;;2.63;1.00;;;26.60;30.30;;;;;;5073154;28;20908;-79
2022/05/17 06:06:57;;;;;;;3.77;1.10;;;25.70;32.20;;;;;;5073033;28;20670;-77
2022/05/17 06:09:26;;;;;;;5.53;1.10;;;24.90;33.80;;;;;;5073268;28;20168;-78
2022/05/17 06:11:53;;;;;;;2.20;1.00;;;24.10;34.50;;;;;;5072495;28;20182;-79
2022/05/17 06:14:21;;;;;;;3.13;0.83;;;23.60;34.80;;;;;;5072867;28;20205;-78
2022/05/17 06:16:52;;;;;;;3.53;0.97;;;23.40;35.50;;;;;;5072873;28;20539;-78
2022/05/17 06:19:23;;;;;;;8.47;1.50;;;23.10;36.50;;;;;;5072827;28;20180;-77
2022/05/17 06:21:51;;;;;;;2.17;1.00;;;22.60;39.00;;;;;;5072643;28;20187;-77
2022/05/17 06:24:19;;;;;;;2.67;1.03;;;22.30;38.50;;;;;;5072950;28;20173;-77
2022/05/17 06:26:46;;;;;;;4.17;1.30;;;22.20;39.60;;;;;;5072711;28;20175;-77
2022/05/17 06:29:14;;;;;;;3.17;1.30;;;22.00;41.10;;;;;;5072435;28;20576;-77
2022/05/17 06:31:41;;;;;;;3.63;1.13;;;21.70;42.50;;;;;;5072772;28;20191;-77
2022/05/17 06:34:08;;;;;;;3.00;1.20;;;21.40;42.80;;;;;;5073100;28;20668;-77
2022/05/17 06:36:36;;;;;;;3.27;1.07;;;21.20;43.30;;;;;;5083485;28;20566;-77
2022/05/17 06:39:08;;;;;;;1.00;0.90;;;21.10;43.20;;;;;;5093053;28;20206;-75
2022/05/17 06:41:36;;;;;;;3.00;1.10;;;20.90;42.90;;;;;;5091264;28;20173;-75
2022/05/17 06:44:04;;;;;;;4.23;1.20;;;20.80;43.00;;;;;;5091074;28;20276;-76
2022/05/17 06:46:31;;;;;;;4.10;1.17;;;20.80;43.30;;;;;;5088443;28;20263;-76
2022/05/17 06:48:58;;;;;;;3.27;1.20;;;20.50;43.90;;;;;;5069733;28;20184;-76
2022/05/17 06:51:26;;;;;;;4.83;1.40;;;20.40;44.20;;;;;;5076690;28;20193;-75
2022/05/17 06:53:53;;;;;;;3.70;1.40;;;20.30;45.70;;;;;;5084302;28;20182;-77
2022/05/17 06:56:21;;;;;;;6.83;1.43;;;20.20;46.70;;;;;;5078395;28;20232;-76
2022/05/17 06:58:48;;;;;;;5.73;1.87;;;20.00;47.50;;;;;;5072155;28;20238;-75
2022/05/17 07:01:15;;;;;;;5.47;1.43;;;19.90;48.30;;;;;;5070714;28;20198;-76
2022/05/17 07:03:43;;;;;;;3.30;1.53;;;19.80;49.60;;;;;;5074800;28;20187;-75
2022/05/17 07:06:11;;;;;;;5.47;1.73;;;19.60;49.70;;;;;;5074973;28;20182;-75
2022/05/17 07:08:38;;;;;;;6.33;1.30;;;19.50;50.70;;;;;;5091584;28;20195;-76
2022/05/17 07:13:52;;;;;;;4.50;1.30;;;19.20;50.40;;;;;;5096181;28;20220;-76
2022/05/17 07:16:20;;;;;;;6.47;1.80;;;19.10;50.20;;;;;;5081774;28;20175;-75
2022/05/17 07:18:47;;;;;;;2.97;1.20;;;19.00;50.40;;;;;;5069927;28;20245;-75
2022/05/17 07:21:15;;;;;;;6.93;1.77;;;18.90;50.70;;;;;;5059393;28;20182;-75
2022/05/17 07:23:43;;;;;;;5.30;1.50;;;18.80;50.80;;;;;;5075853;28;20184;-75
2022/05/17 07:26:12;;;;;;;3.23;1.30;;;18.70;51.00;;;;;;5075627;28;20665;-76
2022/05/17 07:28:42;;;;;;;3.00;1.40;;;18.70;50.80;;;;;;5075597;28;20189;-75
2022/05/17 07:31:10;;;;;;;5.77;2.97;;;18.60;52.60;;;;;;5074748;28;20526;-75
2022/05/17 07:33:38;;;;;;;7.47;2.20;;;18.50;53.20;;;;;;5073308;28;20309;-75
2022/05/17 07:36:07;;;;;;;6.23;2.30;;;18.40;53.10;;;;;;5075930;28;20184;-76
2022/05/17 07:38:36;;;;;;;5.20;2.23;;;18.30;51.90;;;;;;5075522;28;20206;-75
2022/05/17 07:41:04;;;;;;;4.23;2.17;;;18.30;51.80;;;;;;5075093;28;20533;-75
2022/05/17 07:43:32;;;;;;;5.57;2.87;;;18.30;51.30;;;;;;5074907;28;20229;-76
2022/05/17 07:45:59;;;;;;;7.00;2.07;;;18.20;51.10;;;;;;5073255;28;20183;-76
2022/05/17 07:48:27;;;;;;;5.30;2.07;;;18.20;51.40;;;;;;5075083;28;20232;-76
2022/05/17 07:50:55;;;;;;;5.20;2.30;;;18.10;51.00;;;;;;5070464;28;20172;-76
2022/05/17 07:53:23;;;;;;;6.23;2.17;;;18.00;51.10;;;;;;5084364;28;20207;-76
2022/05/17 07:55:51;;;;;;;8.00;2.10;;;18.00;50.80;;;;;;5064575;28;20182;-76
2022/05/17 07:58:20;;;;;;;5.83;2.10;;;18.00;50.60;;;;;;5053140;28;20242;-76
2022/05/17 08:00:49;;;;;;;5.90;1.87;;;17.90;50.70;;;;;;5067517;28;20582;-76
2022/05/17 08:03:18;;;;;;;6.93;2.60;;;17.80;50.00;;;;;;5073441;28;20187;-77
2022/05/17 08:05:46;;;;;;;3.50;1.90;;;17.80;50.20;;;;;;5074561;28;20539;-75
2022/05/17 08:08:13;;;;;;;3.97;1.70;;;17.80;49.60;;;;;;5071697;28;20668;-76
2022/05/17 08:10:41;;;;;;;5.77;1.70;;;17.80;50.30;;;;;;5070595;28;20172;-75
2022/05/17 08:13:09;;;;;;;4.90;2.00;;;17.70;50.40;;;;;;5074592;28;20187;-75
2022/05/17 08:15:36;;;;;;;3.70;2.17;;;17.70;50.50;;;;;;5083939;28;20215;-76
2022/05/17 08:18:04;;;;;;;5.83;2.20;;;17.60;50.60;;;;;;5072197;28;20234;-75
2022/05/17 08:20:33;;;;;;;4.87;2.30;;;17.60;50.80;;;;;;5073710;28;20186;-75
2022/05/17 08:23:00;;;;;;;3.80;2.10;;;17.50;50.90;;;;;;5064787;28;20180;-76
2022/05/17 08:28:14;;;;;;;4.83;2.50;;;17.40;50.50;;;;;;5073670;28;20601;-75
2022/05/17 08:30:43;;;;;;;8.50;2.70;;;17.30;50.60;;;;;;5072911;28;20183;-75
2022/05/17 08:33:16;;;;;;;6.13;2.43;;;17.30;51.60;;;;;;5079850;28;20266;-76
2022/05/17 08:36:01;;;;;;;8.20;3.00;;;17.20;52.30;;;;;;5080306;28;20194;-75
2022/05/17 08:38:39;;;;;;;6.20;2.80;;;17.20;52.00;;;;;;5090019;28;20205;-75
2022/05/17 08:41:33;;;;;;;6.23;2.97;;;17.20;51.40;;;;;;5077186;28;20192;-75
2022/05/17 08:44:04;;;;;;;6.63;3.00;;;17.20;51.10;;;;;;5087065;28;20572;-76
2022/05/17 08:46:48;;;;;;;6.70;3.60;;;17.10;51.90;;;;;;5070307;28;20171;-75
2022/05/17 08:49:25;;;;;;;6.30;3.40;;;17.00;51.20;;;;;;5065400;28;20183;-76
2022/05/17 08:51:55;;;;;;;6.73;3.33;;;17.00;51.00;;;;;;5060474;28;20186;-76
2022/05/17 08:54:50;;;;;;;7.93;4.03;;;17.00;50.30;;;;;;5065193;28;20170;-76
2022/05/17 08:57:41;;;;;;;6.27;2.73;;;16.90;50.50;;;;;;5073531;28;20286;-75
2022/05/17 09:00:10;;;;;;;5.93;3.40;;;16.80;51.40;;;;;;5075061;28;20167;-75
2022/05/17 09:02:42;;;;;;;11.27;3.93;;;16.80;52.30;;;;;;5077478;28;20186;-75
2022/05/17 09:05:24;;;;;;;8.07;3.53;;;16.70;53.20;;;;;;5060772;28;20174;-75
2022/05/17 09:08:11;;;;;;;9.47;5.97;;;16.70;53.30;;;;;;5053849;28;20305;-75
2022/05/17 09:10:44;;;;;;;6.13;3.70;;;16.60;54.40;;;;;;5053971;28;20187;-75
2022/05/17 09:13:43;;;;;;;12.87;3.73;;;16.60;54.60;;;;;;5068361;28;20240;-75
2022/05/17 09:16:12;;;;;;;7.93;4.37;;;16.50;55.90;;;;;;5068995;28;20728;-75
2022/05/17 09:18:41;;;;;;;6.17;3.50;;;16.40;57.30;;;;;;5068742;28;20689;-75
2022/05/17 09:21:32;;;;;;;9.00;3.50;;;16.30;58.50;;;;;;5053195;28;20264;-75
2022/05/17 09:24:03;;;;;;;5.03;3.20;;;16.20;58.50;;;;;;5058717;28;20174;-75
2022/05/17 09:26:31;;;;;;;7.00;2.90;;;16.00;58.60;;;;;;5071240;28;20171;-75
2022/05/17 09:29:05;;;;;;;6.63;3.07;;;15.90;58.80;;;;;;5071896;28;20193;-75
2022/05/17 09:31:35;;;;;;;4.73;2.97;;;15.90;57.10;;;;;;5068633;28;20191;-75
2022/05/17 09:34:08;;;;;;;8.47;3.37;;;15.70;57.70;;;;;;5071919;28;20582;-74
2022/05/17 09:36:44;;;;;;;9.00;3.23;;;15.70;58.20;;;;;;5073103;28;20180;-74
2022/05/17 09:39:12;;;;;;;7.27;3.63;;;15.70;59.00;;;;;;5073046;28;20184;-75
2022/05/17 09:41:41;;;;;;;10.50;4.03;;;15.70;58.70;;;;;;5072322;28;20210;-75
2022/05/17 09:44:23;;;;;;;9.60;4.80;;;15.60;60.40;;;;;;5072847;28;20222;-75
2022/05/17 09:46:56;;;;;;;9.20;4.67;;;15.50;61.60;;;;;;5073117;28;20174;-73
2022/05/17 09:52:34;;;;;;;7.77;4.53;;;15.40;60.70;;;;;;5074870;28;20557;-75
2022/05/17 09:55:13;;;;;;;11.67;4.97;;;15.30;61.20;;;;;;5058141;28;20176;-75
2022/05/17 09:57:51;;;;;;;7.40;4.60;;;15.30;61.00;;;;;;5057598;28;20565;-74
2022/05/17 10:00:28;;;;;;;7.43;4.47;;;15.30;63.30;;;;;;5061153;28;20195;-74
2022/05/17 10:03:05;;;;;;;6.17;4.00;;;15.20;63.80;;;;;;5072340;28;20184;-74
2022/05/17 10:05:58;;;;;;;7.37;3.80;;;15.10;64.00;;;;;;5071933;28;20234;-74
2022/05/17 10:08:31;;;;;;;6.20;3.70;;;15.20;64.20;;;;;;5071159;28;20186;-74
2022/05/17 10:11:13;;;;;;;10.23;4.17;;;15.10;63.80;;;;;;5072960;28;20589;-74
2022/05/17 10:13:57;;;;;;;6.77;3.80;;;15.10;63.10;;;;;;5073078;28;20175;-74
2022/05/17 10:16:49;;;;;;;6.73;3.73;;;15.10;62.00;;;;;;5070977;28;20187;-74
2022/05/17 10:19:35;;;;;;;11.23;4.03;;;15.00;62.80;;;;;;5092088;28;20680;-74
2022/05/17 10:22:23;;;;;;;8.30;4.13;;;15.00;63.50;;;;;;5080494;28;20557;-74
2022/05/17 10:25:00;;;;;;;7.07;3.30;;;14.80;62.70;;;;;;5072975;28;20266;-74
2022/05/17 10:27:39;;;;;;;8.23;3.50;;;14.90;62.20;;;;;;5070118;28;20273;-74
2022/05/17 10:30:20;;;;;;;7.40;3.87;;;14.90;63.20;;;;;;5052690;28;20214;-74
2022/05/17 10:33:10;;;;;;;9.33;3.70;;;14.90;65.00;;;;;;5071427;28;20324;-74
2022/05/17 10:35:49;;;;;;;10.67;3.60;;;14.90;63.70;;;;;;5072967;28;20176;-74
2022/05/17 10:38:26;;;;;;;6.13;3.30;;;15.00;65.00;;;;;;5073017;28;20206;-74
2022/05/17 10:40:56;;;;;;;7.00;2.80;;;14.90;65.00;;;;;;5069452;28;20638;-74
2022/05/17 10:43:32;;;;;;;7.03;3.40;;;14.90;63.10;;;;;;5072245;28;20279;-74
2022/05/17 10:46:08;;;;;;;4.10;2.93;;;14.90;63.70;;;;;;5072302;28;20268;-74
2022/05/17 10:48:51;;;;;;;4.77;3.20;;;14.90;62.80;;;;;;5072476;28;20183;-75
2022/05/17 10:51:28;;;;;;;8.40;3.43;;;14.90;63.30;;;;;;5071798;28;20175;-74
2022/05/17 10:54:31;;;;;;;7.07;2.80;;;14.90;64.30;;;;;;5090262;28;20178;-74
2022/05/17 10:57:05;;;;;;;5.80;2.60;;;14.80;64.00;;;;;;5068382;28;20641;-74
2022/05/17 10:59:38;;;;;;;3.63;2.23;;;14.80;64.10;;;;;;5072892;28;20255;-74
2022/05/17 11:02:42;;;;;;;4.30;2.37;;;14.80;63.50;;;;;;5072093;28;20185;-74
2022/05/17 11:05:21;;;;;;;5.07;2.37;;;14.70;63.40;;;;;;5072267;28;20188;-74
2022/05/17 11:08:10;;;;;;;7.37;2.80;;;14.70;63.60;;;;;;5087932;28;20213;-74
2022/05/17 11:10:59;;;;;;;4.83;2.90;;;14.70;64.90;;;;;;5075105;28;20195;-73
2022/05/17 11:13:29;;;;;;;5.27;3.10;;;14.60;65.30;;;;;;5083418;28;20211;-74
2022/05/17 11:16:08;;;;;;;5.87;3.30;;;14.50;65.90;;;;;;5086094;28;20179;-74
2022/05/17 11:18:49;;;;;;;8.20;3.57;;;14.50;66.20;;;;;;5072359;28;20209;-74
2022/05/17 11:21:40;;;;;;;5.13;3.40;;;14.40;66.80;;;;;;5069439;28;20179;-74
2022/05/17 11:24:24;;;;;;;6.90;3.57;;;14.30;67.30;;;;;;5072528;28;20635;-73
2022/05/17 11:27:14;;;;;;;8.33;4.07;;;14.20;66.70;;;;;;5075888;28;20182;-74
2022/05/17 11:30:08;;;;;;;7.13;3.60;;;14.20;66.70;;;;;;5074962;28;20222;-74
2022/05/17 11:32:40;;;;;;;8.10;3.60;;;14.20;66.10;;;;;;5068246;28;20175;-74
2022/05/17 11:35:32;;;;;;;8.03;3.60;;;14.20;66.30;;;;;;5086043;28;20182;-74
2022/05/17 11:38:00;;;;;;;4.67;3.00;;;14.20;66.10;;;;;;5092394;28;20345;-75
2022/05/17 11:40:54;;;;;;;7.40;3.63;;;14.10;64.90;;;;;;5074212;28;20262;-74
2022/05/17 11:43:41;;;;;;;7.60;3.37;;;14.10;65.50;;;;;;5056561;28;20219;-74
2022/05/17 11:46:34;;;;;;;6.67;3.60;;;14.00;66.60;;;;;;5065519;28;20202;-75
2022/05/17 11:49:13;;;;;;;6.87;3.43;;;13.90;67.60;;;;;;5089094;28;20182;-74
2022/05/17 11:52:00;;;;;;;7.60;3.70;;;13.90;67.80;;;;;;5059843;28;20176;-74
2022/05/17 11:54:43;;;;;;;5.93;3.40;;;13.80;67.80;;;;;;5079480;28;20210;-74
2022/05/17 11:57:17;;;;;;;5.37;3.37;;;13.70;68.50;;;;;;5095682;28;20193;-74
2022/05/17 11:59:55;;;;;;;4.50;3.03;;;13.70;69.50;;;;;;5071055;28;20523;-74
2022/05/17 12:02:40;;;;;;;4.20;2.80;;;13.60;69.00;;;;;;5074590;28;20175;-74
2022/05/17 12:05:11;;;;;;;4.83;3.07;;;13.60;70.00;;;;;;5075168;28;20643;-74
2022/05/17 12:07:39;;;;;;;9.97;3.40;;;13.50;70.10;;;;;;5056499;28;20172;-74
2022/05/17 12:10:20;;;;;;;6.37;3.27;;;13.40;70.20;;;;;;5091979;28;20179;-74
2022/05/17 12:13:05;;;;;;;6.77;3.00;;;13.40;69.90;;;;;;5081237;28;20186;-74
2022/05/17 12:15:58;;;;;;;8.67;3.10;;;13.40;68.90;;;;;;5074931;28;20182;-75
2022/05/17 12:18:29;;;;;;;4.37;2.77;;;13.50;68.00;;;;;;5072303;28;20309;-74
2022/05/17 12:21:08;;;;;;;5.87;3.03;;;13.50;68.20;;;;;;5072543;28;20183;-75
2022/05/17 12:23:58;;;;;;;7.13;2.67;;;13.50;68.50;;;;;;5083459;28;20223;-74
2022/05/17 12:27:04;;;;;;;6.00;2.90;;;13.50;67.60;;;;;;5094737;28;20202;-74
2022/05/17 12:32:30;;;;;;;4.83;2.90;;;13.30;67.00;;;;;;5073141;28;20214;-74
2022/05/17 12:34:58;;;;;;;4.70;2.57;;;13.30;67.10;;;;;;5074805;28;20179;-75
2022/05/17 12:37:28;;;;;;;11.50;3.23;;;13.30;67.40;;;;;;5074630;28;20195;-74
2022/05/17 12:45:36;;;;;;;5.77;2.87;;;13.20;67.70;;;;;;5075049;28;20171;-74
2022/05/17 12:48:20;;;;;;;6.13;2.57;;;13.20;67.10;;;;;;5074072;28;20693;-75
2022/05/17 12:50:54;;;;;;;5.03;2.20;;;13.20;66.60;;;;;;5074182;28;20304;-74
2022/05/17 12:53:39;;;;;;;4.90;2.67;;;13.30;67.10;;;;;;5074582;28;20203;-75
2022/05/17 12:56:10;;;;;;;3.50;2.10;;;13.20;66.00;;;;;;5074295;28;20198;-74
2022/05/17 12:59:09;;;;;;;4.80;2.40;;;13.20;64.70;;;;;;5059605;28;20225;-75
2022/05/17 13:01:41;;;;;;;5.53;1.87;;;13.20;65.10;;;;;;5073205;28;20634;-74
2022/05/17 13:04:17;;;;;;;6.10;2.20;;;13.20;66.00;;;;;;5070744;28;20171;-74
2022/05/17 13:06:50;;;;;;;5.17;2.30;;;13.20;66.10;;;;;;5074475;28;20159;-74
2022/05/17 13:09:22;;;;;;;3.90;2.13;;;13.20;65.80;;;;;;5073513;28;20566;-74
2022/05/17 13:11:52;;;;;;;5.83;2.30;;;13.20;66.10;;;;;;5072907;28;20179;-74
2022/05/17 13:14:22;;;;;;;10.10;2.20;;;13.10;66.50;;;;;;5074143;28;20531;-74
2022/05/17 13:16:51;;;;;;;6.30;2.30;;;13.00;67.30;;;;;;5073517;28;20664;-74
2022/05/17 13:19:23;;;;;;;6.23;2.37;;;12.90;67.40;;;;;;5073838;28;20669;-74
2022/05/17 13:21:54;;;;;;;4.97;2.00;;;12.90;67.70;;;;;;5070129;28;20542;-73
2022/05/17 13:24:27;;;;;;;3.07;2.23;;;12.80;66.80;;;;;;5073446;28;20179;-74
2022/05/17 13:26:59;;;;;;;6.93;2.57;;;12.80;67.60;;;;;;5073223;28;20662;-74
2022/05/17 13:29:36;;;;;;;5.87;2.27;;;12.70;67.90;;;;;;5073278;28;20673;-74
2022/05/17 13:32:27;;;;;;;3.60;2.00;;;12.70;68.40;;;;;;5074248;28;20186;-73